createdAt,value
2023-04-17T00:00:35.606Z,0.00
2023-04-17T00:01:35.589Z,0.00
2023-04-17T00:02:35.789Z,0.00
2023-04-17T00:03:35.821Z,0.00
2023-04-17T00:04:35.801Z,0.00
2023-04-17T00:05:35.640Z,0.00
2023-04-17T00:06:35.585Z,0.00
2023-04-17T00:07:35.573Z,0.00
2023-04-17T00:08:35.574Z,0.00
2023-04-17T00:09:35.645Z,0.00
2023-04-17T00:10:35.606Z,0.00
2023-04-17T00:11:35.554Z,0.00
2023-04-17T00:12:35.559Z,0.00
2023-04-17T00:13:35.556Z,0.00
2023-04-17T00:14:35.536Z,0.00
2023-04-17T00:15:35.627Z,0.00
2023-04-17T00:16:35.563Z,0.00
2023-04-17T00:17:35.522Z,0.00
2023-04-17T00:18:35.515Z,0.00
2023-04-17T00:19:35.556Z,0.00
2023-04-17T00:20:35.584Z,0.00
2023-04-17T00:21:35.504Z,0.00
2023-04-17T00:22:35.524Z,0.00
2023-04-17T00:23:35.519Z,0.00
2023-04-17T00:24:35.540Z,0.00
2023-04-17T00:25:35.578Z,0.00
2023-04-17T00:26:35.523Z,0.00
2023-04-17T00:27:35.510Z,0.00
2023-04-17T00:28:35.534Z,0.00
2023-04-17T00:29:35.509Z,0.00
2023-04-17T00:30:35.593Z,0.00
2023-04-17T00:31:35.600Z,0.00
2023-04-17T00:32:35.897Z,0.00
2023-04-17T00:33:35.522Z,0.00
2023-04-17T00:34:35.547Z,0.00
2023-04-17T00:35:35.565Z,0.00
2023-04-17T00:36:35.599Z,0.00
2023-04-17T00:37:35.538Z,0.00
2023-04-17T00:38:35.536Z,0.00
2023-04-17T00:39:35.525Z,0.00
2023-04-17T00:40:35.547Z,0.00
2023-04-17T00:41:35.662Z,0.00
2023-04-17T00:42:35.619Z,0.00
2023-04-17T00:43:35.556Z,0.00
2023-04-17T00:44:35.560Z,0.00
2023-04-17T00:45:35.655Z,0.00
2023-04-17T00:46:35.620Z,0.00
2023-04-17T00:47:35.602Z,0.00
2023-04-17T00:48:35.607Z,0.00
2023-04-17T00:49:35.535Z,0.00
2023-04-17T00:50:35.565Z,0.00
2023-04-17T00:51:35.610Z,0.00
2023-04-17T00:52:35.616Z,0.00
2023-04-17T00:53:35.529Z,0.00
2023-04-17T00:54:35.553Z,0.00
2023-04-17T00:55:35.536Z,0.00
2023-04-17T00:56:35.527Z,0.00
2023-04-17T00:57:35.533Z,0.00
2023-04-17T00:58:35.594Z,0.00
2023-04-17T00:59:35.581Z,0.00
2023-04-17T01:00:35.534Z,0.00
2023-04-17T01:01:35.596Z,0.00
2023-04-17T01:02:35.622Z,0.00
2023-04-17T01:03:35.793Z,0.00
2023-04-17T01:04:35.563Z,0.00
2023-04-17T01:05:35.621Z,0.00
2023-04-17T01:06:35.562Z,0.00
2023-04-17T01:07:35.535Z,0.00
2023-04-17T01:08:35.628Z,0.00
2023-04-17T01:09:35.541Z,0.00
2023-04-17T01:10:35.605Z,0.00
2023-04-17T01:11:35.545Z,0.00
2023-04-17T01:12:35.559Z,0.00
2023-04-17T01:13:35.553Z,0.00
2023-04-17T01:14:35.555Z,0.00
2023-04-17T01:15:35.615Z,0.00
2023-04-17T01:16:35.681Z,0.00
2023-04-17T01:17:35.571Z,0.00
2023-04-17T01:18:35.565Z,0.00
2023-04-17T01:19:35.588Z,0.00
2023-04-17T01:20:35.642Z,0.00
2023-04-17T01:21:35.571Z,0.00
2023-04-17T01:22:35.585Z,0.00
2023-04-17T01:23:35.568Z,0.00
2023-04-17T01:24:35.665Z,0.00
2023-04-17T01:25:35.592Z,0.00
2023-04-17T01:26:35.588Z,0.00
2023-04-17T01:27:35.623Z,0.00
2023-04-17T01:28:35.585Z,0.00
2023-04-17T01:29:35.843Z,0.00
2023-04-17T01:30:35.656Z,0.00
2023-04-17T01:31:35.581Z,0.00
2023-04-17T01:32:35.614Z,0.00
2023-04-17T01:33:35.584Z,0.00
2023-04-17T01:34:37.439Z,0.00
2023-04-17T01:35:35.596Z,0.00
2023-04-17T01:36:35.577Z,0.00
2023-04-17T01:37:35.588Z,0.00
2023-04-17T01:38:35.593Z,0.00
2023-04-17T01:39:35.646Z,0.00
2023-04-17T01:40:35.593Z,0.00
2023-04-17T01:41:35.584Z,0.00
2023-04-17T01:42:35.601Z,0.00
2023-04-17T01:43:35.587Z,0.00
2023-04-17T01:44:35.653Z,0.00
2023-04-17T01:45:35.591Z,0.00
2023-04-17T01:46:35.653Z,0.00
2023-04-17T01:47:35.659Z,0.00
2023-04-17T01:48:35.614Z,0.00
2023-04-17T01:49:35.620Z,0.00
2023-04-17T01:50:35.577Z,0.00
2023-04-17T01:51:35.617Z,0.00
2023-04-17T01:52:35.672Z,0.00
2023-04-17T01:53:35.578Z,0.00
2023-04-17T01:54:35.634Z,0.00
2023-04-17T01:55:35.594Z,0.00
2023-04-17T01:56:35.589Z,0.00
2023-04-17T01:57:35.622Z,0.00
2023-04-17T01:58:35.638Z,0.00
2023-04-17T01:59:35.656Z,0.00
2023-04-17T02:00:35.597Z,0.00
2023-04-17T02:01:35.858Z,0.00
2023-04-17T02:02:35.899Z,0.00
2023-04-17T02:03:35.953Z,0.00
2023-04-17T02:04:36.283Z,0.00
2023-04-17T02:05:35.843Z,0.00
2023-04-17T02:06:35.635Z,0.00
2023-04-17T02:07:35.660Z,0.00
2023-04-17T02:08:35.644Z,0.00
2023-04-17T02:09:35.635Z,0.00
2023-04-17T02:10:35.699Z,0.00
2023-04-17T02:11:35.636Z,0.00
2023-04-17T02:12:35.662Z,0.00
2023-04-17T02:13:35.628Z,0.00
2023-04-17T02:14:35.655Z,0.00
2023-04-17T02:15:35.773Z,0.00
2023-04-17T02:16:35.679Z,0.00
2023-04-17T02:17:35.731Z,0.00
2023-04-17T02:18:35.675Z,0.00
2023-04-17T02:19:35.688Z,0.00
2023-04-17T02:20:35.706Z,0.00
2023-04-17T02:21:35.738Z,0.00
2023-04-17T02:22:35.705Z,0.00
2023-04-17T02:23:35.703Z,0.00
2023-04-17T02:24:35.709Z,0.00
2023-04-17T02:25:35.747Z,0.00
2023-04-17T02:26:35.776Z,0.00
2023-04-17T02:27:35.730Z,0.00
2023-04-17T02:28:35.720Z,0.00
2023-04-17T02:29:35.736Z,0.00
2023-04-17T02:30:35.721Z,0.00
2023-04-17T02:31:35.840Z,0.00
2023-04-17T02:32:35.765Z,0.00
2023-04-17T02:33:35.753Z,0.00
2023-04-17T02:34:35.720Z,0.00
2023-04-17T02:35:35.736Z,0.00
2023-04-17T02:36:35.807Z,0.00
2023-04-17T02:37:35.739Z,0.00
2023-04-17T02:38:35.754Z,0.00
2023-04-17T02:39:35.760Z,0.00
2023-04-17T02:40:35.798Z,0.00
2023-04-17T02:41:35.864Z,0.00
2023-04-17T02:42:35.795Z,0.00
2023-04-17T02:43:35.851Z,0.00
2023-04-17T02:44:35.789Z,0.00
2023-04-17T02:45:35.806Z,0.00
2023-04-17T02:46:35.891Z,0.00
2023-04-17T02:47:35.883Z,0.00
2023-04-17T02:48:35.888Z,0.00
2023-04-17T02:49:35.833Z,0.00
2023-04-17T02:50:35.846Z,0.00
2023-04-17T02:51:35.864Z,0.00
2023-04-17T02:52:35.882Z,0.00
2023-04-17T02:53:35.994Z,0.00
2023-04-17T02:54:35.907Z,0.00
2023-04-17T02:55:36.047Z,0.00
2023-04-17T02:56:35.897Z,0.00
2023-04-17T02:57:35.930Z,0.00
2023-04-17T02:58:35.988Z,0.00
2023-04-17T02:59:35.956Z,0.00
2023-04-17T03:00:35.985Z,0.00
2023-04-17T03:01:36.009Z,0.00
2023-04-17T03:02:36.139Z,0.00
2023-04-17T03:03:36.245Z,0.00
2023-04-17T03:04:36.002Z,0.00
2023-04-17T03:05:36.004Z,0.00
2023-04-17T03:06:36.001Z,0.00
2023-04-17T03:07:36.032Z,0.00
2023-04-17T03:08:36.128Z,0.00
2023-04-17T03:09:36.029Z,0.00
2023-04-17T03:10:36.040Z,0.00
2023-04-17T03:11:36.046Z,0.00
2023-04-17T03:12:36.049Z,0.00
2023-04-17T03:13:36.141Z,0.00
2023-04-17T03:14:36.072Z,0.00
2023-04-17T03:15:36.072Z,0.00
2023-04-17T03:16:36.138Z,0.00
2023-04-17T03:17:36.120Z,0.00
2023-04-17T03:18:36.124Z,0.00
2023-04-17T03:19:36.108Z,0.00
2023-04-17T03:20:36.129Z,0.00
2023-04-17T03:21:36.168Z,0.00
2023-04-17T03:22:36.125Z,0.00
2023-04-17T03:23:36.149Z,0.00
2023-04-17T03:24:36.206Z,0.00
2023-04-17T03:25:36.179Z,0.00
2023-04-17T03:26:36.236Z,0.00
2023-04-17T03:27:36.214Z,0.00
2023-04-17T03:28:36.234Z,0.00
2023-04-17T03:29:36.210Z,0.00
2023-04-17T03:30:36.214Z,0.00
2023-04-17T03:31:36.311Z,0.00
2023-04-17T03:32:36.290Z,0.00
2023-04-17T03:33:36.341Z,0.00
2023-04-17T03:34:36.254Z,0.00
2023-04-17T03:35:36.271Z,0.00
2023-04-17T03:36:36.363Z,0.00
2023-04-17T03:37:36.293Z,0.00
2023-04-17T03:38:36.370Z,0.00
2023-04-17T03:39:36.321Z,0.00
2023-04-17T03:40:36.342Z,0.00
2023-04-17T03:41:36.400Z,0.00
2023-04-17T03:42:36.359Z,0.00
2023-04-17T03:43:36.430Z,0.00
2023-04-17T03:44:36.426Z,0.00
2023-04-17T03:45:36.476Z,0.00
2023-04-17T03:46:36.479Z,0.00
2023-04-17T03:47:36.465Z,0.00
2023-04-17T03:48:36.430Z,0.00
2023-04-17T03:49:36.484Z,0.00
2023-04-17T03:50:36.482Z,0.00
2023-04-17T03:51:36.561Z,0.00
2023-04-17T03:52:36.526Z,0.00
2023-04-17T03:53:36.527Z,0.00
2023-04-17T03:54:36.528Z,0.00
2023-04-17T03:55:36.561Z,0.00
2023-04-17T03:56:36.629Z,0.00
2023-04-17T03:57:36.566Z,0.00
2023-04-17T03:58:36.626Z,0.00
2023-04-17T03:59:36.573Z,0.00
2023-04-17T04:00:36.616Z,0.00
2023-04-17T04:01:36.681Z,4.00
2023-04-17T04:02:36.722Z,4.00
2023-04-17T04:03:36.701Z,0.00
2023-04-17T04:04:36.886Z,0.00
2023-04-17T04:05:36.652Z,4.00
2023-04-17T04:06:36.741Z,4.00
2023-04-17T04:07:36.673Z,4.00
2023-04-17T04:08:36.661Z,4.00
2023-04-17T04:09:36.709Z,4.00
2023-04-17T04:10:36.688Z,4.00
2023-04-17T04:11:36.734Z,4.00
2023-04-17T04:12:36.793Z,8.00
2023-04-17T04:13:36.780Z,8.00
2023-04-17T04:14:36.728Z,8.00
2023-04-17T04:15:36.764Z,8.00
2023-04-17T04:16:36.832Z,12.00
2023-04-17T04:17:36.788Z,12.00
2023-04-17T04:18:36.827Z,12.00
2023-04-17T04:19:36.842Z,16.00
2023-04-17T04:20:36.791Z,16.00
2023-04-17T04:21:36.800Z,24.00
2023-04-17T04:22:36.804Z,24.00
2023-04-17T04:23:36.821Z,28.00
2023-04-17T04:24:36.938Z,28.00
2023-04-17T04:25:36.882Z,32.00
2023-04-17T04:26:36.844Z,36.00
2023-04-17T04:27:36.868Z,40.00
2023-04-17T04:28:36.888Z,44.00
2023-04-17T04:29:36.898Z,48.00
2023-04-17T04:30:36.958Z,52.00
2023-04-17T04:31:36.932Z,56.00
2023-04-17T04:32:36.977Z,60.00
2023-04-17T04:33:36.946Z,64.00
2023-04-17T04:34:36.938Z,64.00
2023-04-17T04:35:38.336Z,72.00
2023-04-17T04:36:36.942Z,76.00
2023-04-17T04:37:36.986Z,80.00
2023-04-17T04:38:36.996Z,88.00
2023-04-17T04:39:36.982Z,92.00
2023-04-17T04:40:37.056Z,96.00
2023-04-17T04:41:36.999Z,96.00
2023-04-17T04:42:36.976Z,96.00
2023-04-17T04:43:37.025Z,104.00
2023-04-17T04:44:37.060Z,112.00
2023-04-17T04:45:37.066Z,120.00
2023-04-17T04:46:37.020Z,128.00
2023-04-17T04:47:37.123Z,136.00
2023-04-17T04:48:37.033Z,144.00
2023-04-17T04:49:37.036Z,152.00
2023-04-17T04:50:37.091Z,160.00
2023-04-17T04:51:37.039Z,168.00
2023-04-17T04:52:37.045Z,176.00
2023-04-17T04:53:37.033Z,188.00
2023-04-17T04:54:37.055Z,204.00
2023-04-17T04:55:37.131Z,212.00
2023-04-17T04:56:37.113Z,224.00
2023-04-17T04:57:37.065Z,228.00
2023-04-17T04:58:37.092Z,236.00
2023-04-17T04:59:38.954Z,232.00
2023-04-17T05:00:37.145Z,236.00
2023-04-17T05:01:37.244Z,240.00
2023-04-17T05:02:37.354Z,252.00
2023-04-17T05:03:37.322Z,268.00
2023-04-17T05:04:37.201Z,284.00
2023-04-17T05:05:37.161Z,304.00
2023-04-17T05:06:37.142Z,324.00
2023-04-17T05:07:37.121Z,336.00
2023-04-17T05:08:37.105Z,356.00
2023-04-17T05:09:37.236Z,364.00
2023-04-17T05:10:37.227Z,376.00
2023-04-17T05:11:37.298Z,392.00
2023-04-17T05:12:37.225Z,408.00
2023-04-17T05:13:37.152Z,420.00
2023-04-17T05:14:37.198Z,440.00
2023-04-17T05:15:37.311Z,464.00
2023-04-17T05:16:37.242Z,492.00
2023-04-17T05:17:37.306Z,516.00
2023-04-17T05:18:37.293Z,540.00
2023-04-17T05:19:37.262Z,556.00
2023-04-17T05:20:37.245Z,584.00
2023-04-17T05:21:37.235Z,604.00
2023-04-17T05:22:37.249Z,624.00
2023-04-17T05:23:37.318Z,628.00
2023-04-17T05:24:37.249Z,636.00
2023-04-17T05:25:37.253Z,644.00
2023-04-17T05:26:37.254Z,652.00
2023-04-17T05:27:37.264Z,660.00
2023-04-17T05:28:38.328Z,672.00
2023-04-17T05:29:37.302Z,680.00
2023-04-17T05:30:37.296Z,692.00
2023-04-17T05:31:37.422Z,708.00
2023-04-17T05:32:37.385Z,724.00
2023-04-17T05:33:37.380Z,732.00
2023-04-17T05:34:37.316Z,740.00
2023-04-17T05:35:37.289Z,752.00
2023-04-17T05:36:37.342Z,764.00
2023-04-17T05:37:37.309Z,772.00
2023-04-17T05:38:37.422Z,780.00
2023-04-17T05:39:37.301Z,792.00
2023-04-17T05:40:37.356Z,804.00
2023-04-17T05:41:37.354Z,824.00
2023-04-17T05:42:37.354Z,848.00
2023-04-17T05:43:37.433Z,876.00
2023-04-17T05:44:37.364Z,904.00
2023-04-17T05:45:37.402Z,940.00
2023-04-17T05:46:37.378Z,988.00
2023-04-17T05:47:37.409Z,1036.00
2023-04-17T05:48:37.416Z,1092.00
2023-04-17T05:49:37.454Z,1144.00
2023-04-17T05:50:37.414Z,1196.00
2023-04-17T05:51:37.426Z,1232.00
2023-04-17T05:52:39.486Z,1260.00
2023-04-17T05:53:37.409Z,1280.00
2023-04-17T05:54:37.580Z,1292.00
2023-04-17T05:55:37.509Z,1308.00
2023-04-17T05:56:37.459Z,1316.00
2023-04-17T05:57:37.516Z,1308.00
2023-04-17T05:58:37.479Z,1308.00
2023-04-17T05:59:37.572Z,1320.00
2023-04-17T06:00:37.493Z,1344.00
2023-04-17T06:01:37.502Z,1380.00
2023-04-17T06:02:37.745Z,1416.00
2023-04-17T06:03:37.840Z,1460.00
2023-04-17T06:04:37.770Z,1512.00
2023-04-17T06:05:37.596Z,1560.00
2023-04-17T06:06:37.553Z,1604.00
2023-04-17T06:07:37.551Z,1648.00
2023-04-17T06:08:37.530Z,1696.00
2023-04-17T06:09:37.607Z,1752.00
2023-04-17T06:10:37.549Z,1812.00
2023-04-17T06:11:37.552Z,1868.00
2023-04-17T06:12:37.541Z,1924.00
2023-04-17T06:13:37.537Z,1992.00
2023-04-17T06:14:37.554Z,2060.00
2023-04-17T06:15:37.886Z,2120.00
2023-04-17T06:16:37.615Z,2184.00
2023-04-17T06:17:37.751Z,2240.00
2023-04-17T06:18:37.564Z,2284.00
2023-04-17T06:19:37.584Z,2328.00
2023-04-17T06:20:39.988Z,2356.00
2023-04-17T06:21:37.551Z,2404.00
2023-04-17T06:22:37.613Z,2444.00
2023-04-17T06:23:37.555Z,2488.00
2023-04-17T06:24:37.562Z,2536.00
2023-04-17T06:25:37.601Z,2576.00
2023-04-17T06:26:37.542Z,2628.00
2023-04-17T06:27:37.664Z,2676.00
2023-04-17T06:28:37.549Z,2728.00
2023-04-17T06:29:37.857Z,2776.00
2023-04-17T06:30:37.614Z,2816.00
2023-04-17T06:31:37.638Z,2864.00
2023-04-17T06:32:37.643Z,2908.00
2023-04-17T06:33:37.549Z,2944.00
2023-04-17T06:34:46.118Z,2932.00
2023-04-17T06:35:38.543Z,3004.00
2023-04-17T06:36:37.542Z,3016.00
2023-04-17T06:37:37.570Z,3048.00
2023-04-17T06:38:37.581Z,3064.00
2023-04-17T06:39:37.529Z,3100.00
2023-04-17T06:40:37.526Z,3136.00
2023-04-17T06:41:37.539Z,3160.00
2023-04-17T06:42:37.528Z,3180.00
2023-04-17T06:43:37.570Z,3188.00
2023-04-17T06:44:37.506Z,3204.00
2023-04-17T06:45:37.522Z,3228.00
2023-04-17T06:46:37.563Z,3248.00
2023-04-17T06:47:37.539Z,3280.00
2023-04-17T06:48:37.560Z,3292.00
2023-04-17T06:49:37.494Z,3272.00
2023-04-17T06:50:37.480Z,3300.00
2023-04-17T06:51:37.469Z,3328.00
2023-04-17T06:52:37.488Z,3372.00
2023-04-17T06:53:37.535Z,3420.00
2023-04-17T06:54:37.572Z,3440.00
2023-04-17T06:55:37.466Z,3464.00
2023-04-17T06:56:37.455Z,3480.00
2023-04-17T06:57:37.481Z,3500.00
2023-04-17T06:58:37.470Z,3512.00
2023-04-17T06:59:37.518Z,3512.00
2023-04-17T07:00:37.451Z,3512.00
2023-04-17T07:01:37.484Z,3492.00
2023-04-17T07:02:37.548Z,3452.00
2023-04-17T07:03:37.580Z,3444.00
2023-04-17T07:04:37.542Z,3568.00
2023-04-17T07:05:37.429Z,3632.00
2023-04-17T07:06:37.427Z,3620.00
2023-04-17T07:07:37.416Z,3680.00
2023-04-17T07:08:37.440Z,3708.00
2023-04-17T07:09:37.463Z,3736.00
2023-04-17T07:10:37.393Z,3760.00
2023-04-17T07:11:37.453Z,3812.00
2023-04-17T07:12:37.392Z,3856.00
2023-04-17T07:13:37.360Z,3916.00
2023-04-17T07:14:37.394Z,3964.00
2023-04-17T07:15:37.406Z,4020.00
2023-04-17T07:16:37.446Z,4064.00
2023-04-17T07:17:37.362Z,4100.00
2023-04-17T07:18:37.313Z,4120.00
2023-04-17T07:19:37.290Z,4144.00
2023-04-17T07:20:37.349Z,4192.00
2023-04-17T07:21:37.274Z,4220.00
2023-04-17T07:22:37.297Z,4236.00
2023-04-17T07:23:37.243Z,4268.00
2023-04-17T07:24:37.234Z,4292.00
2023-04-17T07:25:37.285Z,4308.00
2023-04-17T07:26:37.181Z,4340.00
2023-04-17T07:27:37.194Z,4380.00
2023-04-17T07:28:37.164Z,4424.00
2023-04-17T07:29:37.157Z,4444.00
2023-04-17T07:30:37.197Z,4456.00
2023-04-17T07:31:37.167Z,4480.00
2023-04-17T07:32:37.124Z,4500.00
2023-04-17T07:33:40.037Z,4528.00
2023-04-17T07:34:37.055Z,4548.00
2023-04-17T07:35:37.316Z,4584.00
2023-04-17T07:36:37.095Z,4620.00
2023-04-17T07:37:37.076Z,4648.00
2023-04-17T07:38:38.627Z,4676.00
2023-04-17T07:39:37.038Z,4708.00
2023-04-17T07:40:37.171Z,4752.00
2023-04-17T07:41:36.956Z,4784.00
2023-04-17T07:42:36.952Z,4824.00
2023-04-17T07:43:37.081Z,4864.00
2023-04-17T07:44:36.925Z,4888.00
2023-04-17T07:45:38.099Z,4916.00
2023-04-17T07:46:37.005Z,4956.00
2023-04-17T07:47:36.951Z,4996.00
2023-04-17T07:48:36.945Z,5036.00
2023-04-17T07:49:36.840Z,5064.00
2023-04-17T07:50:36.831Z,5108.00
2023-04-17T07:51:36.872Z,5124.00
2023-04-17T07:52:36.802Z,5148.00
2023-04-17T07:53:36.794Z,5180.00
2023-04-17T07:54:36.781Z,5188.00
2023-04-17T07:55:36.772Z,5180.00
2023-04-17T07:56:36.827Z,5252.00
2023-04-17T07:57:36.736Z,5296.00
2023-04-17T07:58:36.709Z,5324.00
2023-04-17T07:59:36.719Z,5368.00
2023-04-17T08:00:36.692Z,5424.00
2023-04-17T08:01:36.727Z,5468.00
2023-04-17T08:02:36.789Z,5512.00
2023-04-17T08:03:36.971Z,5560.00
2023-04-17T08:04:36.761Z,5592.00
2023-04-17T08:05:36.612Z,5656.00
2023-04-17T08:06:36.620Z,5680.00
2023-04-17T08:07:36.567Z,5684.00
2023-04-17T08:08:36.530Z,5700.00
2023-04-17T08:09:36.551Z,5736.00
2023-04-17T08:10:36.498Z,5732.00
2023-04-17T08:11:46.041Z,5748.00
2023-04-17T08:12:37.489Z,5732.00
2023-04-17T08:13:36.519Z,5728.00
2023-04-17T08:14:36.464Z,5712.00
2023-04-17T08:15:37.973Z,5704.00
2023-04-17T08:16:36.707Z,5716.00
2023-04-17T08:17:36.366Z,5724.00
2023-04-17T08:18:36.307Z,5712.00
2023-04-17T08:19:36.356Z,5692.00
2023-04-17T08:20:36.277Z,5688.00
2023-04-17T08:21:36.266Z,5676.00
2023-04-17T08:22:36.227Z,5676.00
2023-04-17T08:23:36.208Z,5648.00
2023-04-17T08:24:36.294Z,5668.00
2023-04-17T08:25:36.157Z,5624.00
2023-04-17T08:26:36.122Z,5588.00
2023-04-17T08:27:36.121Z,5552.00
2023-04-17T08:28:36.111Z,5536.00
2023-04-17T08:29:36.115Z,5500.00
2023-04-17T08:30:36.081Z,5460.00
2023-04-17T08:31:36.068Z,5468.00
2023-04-17T08:32:36.035Z,5476.00
2023-04-17T08:33:35.992Z,5464.00
2023-04-17T08:34:35.991Z,5504.00
2023-04-17T08:35:36.175Z,5520.00
2023-04-17T08:36:35.892Z,5540.00
2023-04-17T08:37:35.918Z,5520.00
2023-04-17T08:38:35.857Z,5548.00
2023-04-17T08:39:35.902Z,5496.00
2023-04-17T08:40:35.800Z,5408.00
2023-04-17T08:41:35.772Z,5392.00
2023-04-17T08:42:35.724Z,5424.00
2023-04-17T08:43:35.779Z,5472.00
2023-04-17T08:44:35.678Z,5504.00
2023-04-17T08:45:35.707Z,5460.00
2023-04-17T08:46:35.721Z,5412.00
2023-04-17T08:47:35.848Z,5356.00
2023-04-17T08:48:35.562Z,5300.00
2023-04-17T08:49:35.548Z,5268.00
2023-04-17T08:50:35.654Z,5316.00
2023-04-17T08:51:35.470Z,5488.00
2023-04-17T08:52:35.449Z,5392.00
2023-04-17T08:53:35.379Z,5468.00
2023-04-17T08:54:35.349Z,5184.00
2023-04-17T08:55:35.322Z,5092.00
2023-04-17T08:56:35.280Z,5084.00
2023-04-17T08:57:35.470Z,5092.00
2023-04-17T08:58:35.205Z,4864.00
2023-04-17T08:59:35.210Z,4788.00
2023-04-17T09:00:35.324Z,4792.00
2023-04-17T09:01:35.233Z,4760.00
2023-04-17T09:02:35.342Z,4744.00
2023-04-17T09:03:35.176Z,4732.00
2023-04-17T09:04:35.248Z,4752.00
2023-04-17T09:05:34.990Z,4776.00
2023-04-17T09:06:34.963Z,4828.00
2023-04-17T09:07:34.989Z,4884.00
2023-04-17T09:08:34.913Z,4936.00
2023-04-17T09:09:34.893Z,4960.00
2023-04-17T09:10:34.852Z,4972.00
2023-04-17T09:11:34.871Z,4960.00
2023-04-17T09:12:34.808Z,4956.00
2023-04-17T09:13:34.778Z,4936.00
2023-04-17T09:14:34.800Z,4908.00
2023-04-17T09:15:34.783Z,4844.00
2023-04-17T09:16:34.770Z,4776.00
2023-04-17T09:17:34.809Z,4728.00
2023-04-17T09:18:34.708Z,4656.00
2023-04-17T09:19:35.172Z,4596.00
2023-04-17T09:20:34.578Z,4520.00
2023-04-17T09:21:34.564Z,4444.00
2023-04-17T09:22:34.521Z,4384.00
2023-04-17T09:23:34.553Z,4328.00
2023-04-17T09:24:34.466Z,4280.00
2023-04-17T09:25:34.428Z,4248.00
2023-04-17T09:26:34.398Z,4232.00
2023-04-17T09:27:34.377Z,4220.00
2023-04-17T09:28:34.385Z,4180.00
2023-04-17T09:29:34.299Z,4148.00
2023-04-17T09:30:34.267Z,4096.00
2023-04-17T09:31:34.419Z,4056.00
2023-04-17T09:32:34.375Z,4016.00
2023-04-17T09:33:34.173Z,3968.00
2023-04-17T09:34:34.200Z,3948.00
2023-04-17T09:35:34.978Z,3904.00
2023-04-17T09:36:34.291Z,3864.00
2023-04-17T09:37:34.066Z,3852.00
2023-04-17T09:38:34.092Z,3848.00
2023-04-17T09:39:33.989Z,3832.00
2023-04-17T09:40:33.974Z,3848.00
2023-04-17T09:41:33.935Z,3792.00
2023-04-17T09:42:33.892Z,3812.00
2023-04-17T09:43:33.855Z,3660.00
2023-04-17T09:44:33.925Z,3508.00
2023-04-17T09:45:33.789Z,3424.00
2023-04-17T09:46:33.793Z,3384.00
2023-04-17T09:47:33.834Z,3364.00
2023-04-17T09:48:33.729Z,3348.00
2023-04-17T09:49:33.721Z,3348.00
2023-04-17T09:50:33.812Z,3368.00
2023-04-17T09:51:33.618Z,3372.00
2023-04-17T09:52:33.628Z,3384.00
2023-04-17T09:53:33.540Z,3368.00
2023-04-17T09:54:33.588Z,3420.00
2023-04-17T09:55:33.480Z,3536.00
2023-04-17T09:56:33.460Z,3584.00
2023-04-17T09:57:33.448Z,3616.00
2023-04-17T09:58:33.357Z,3648.00
2023-04-17T09:59:33.394Z,3936.00
2023-04-17T10:00:33.312Z,3800.00
2023-04-17T10:01:33.247Z,3884.00
2023-04-17T10:02:33.458Z,3828.00
2023-04-17T10:03:35.936Z,3856.00
2023-04-17T10:04:33.283Z,3988.00
2023-04-17T10:05:33.182Z,4012.00
2023-04-17T10:06:33.050Z,4172.00
2023-04-17T10:07:33.050Z,4176.00
2023-04-17T10:08:32.980Z,4180.00
2023-04-17T10:09:32.930Z,4284.00
2023-04-17T10:10:32.940Z,4280.00
2023-04-17T10:11:32.875Z,4320.00
2023-04-17T10:12:34.750Z,4252.00
2023-04-17T10:13:32.786Z,4276.00
2023-04-17T10:14:32.842Z,4524.00
2023-04-17T10:15:32.706Z,4668.00
2023-04-17T10:16:32.700Z,4636.00
2023-04-17T10:17:32.729Z,4668.00
2023-04-17T10:18:32.592Z,4788.00
2023-04-17T10:19:32.557Z,4596.00
2023-04-17T10:20:32.530Z,4676.00
2023-04-17T10:21:32.517Z,4608.00
2023-04-17T10:22:32.414Z,4664.00
2023-04-17T10:23:32.384Z,4736.00
2023-04-17T10:24:32.332Z,4632.00
2023-04-17T10:25:32.276Z,4684.00
2023-04-17T10:26:32.266Z,4476.00
2023-04-17T10:27:32.233Z,4508.00
2023-04-17T10:28:32.108Z,4500.00
2023-04-17T10:29:32.080Z,4720.00
2023-04-17T10:30:32.014Z,4692.00
2023-04-17T10:31:31.999Z,4892.00
2023-04-17T10:32:32.151Z,4980.00
2023-04-17T10:33:31.849Z,5188.00
2023-04-17T10:34:31.800Z,5124.00
2023-04-17T10:35:31.813Z,5176.00
2023-04-17T10:36:31.700Z,5156.00
2023-04-17T10:37:31.711Z,4984.00
2023-04-17T10:38:31.576Z,4924.00
2023-04-17T10:39:31.518Z,5160.00
2023-04-17T10:40:31.520Z,5060.00
2023-04-17T10:41:31.417Z,4992.00
2023-04-17T10:42:31.346Z,5252.00
2023-04-17T10:43:31.358Z,5168.00
2023-04-17T10:44:31.297Z,5024.00
2023-04-17T10:45:31.212Z,5044.00
2023-04-17T10:46:31.280Z,4312.00
2023-04-17T10:47:31.059Z,4300.00
2023-04-17T10:48:32.028Z,4252.00
2023-04-17T10:49:31.179Z,4180.00
2023-04-17T10:50:30.872Z,4352.00
2023-04-17T10:51:30.793Z,4876.00
2023-04-17T10:52:30.880Z,4096.00
2023-04-17T10:53:30.683Z,3924.00
2023-04-17T10:54:30.669Z,3696.00
2023-04-17T10:55:30.547Z,4120.00
2023-04-17T10:56:30.511Z,4596.00
2023-04-17T10:57:30.416Z,4464.00
2023-04-17T10:58:31.441Z,3984.00
2023-04-17T10:59:30.362Z,4028.00
2023-04-17T11:00:30.281Z,3816.00
2023-04-17T11:01:30.218Z,3612.00
2023-04-17T11:02:30.184Z,3620.00
2023-04-17T11:03:30.130Z,3480.00
2023-04-17T11:04:30.078Z,3412.00
2023-04-17T11:05:30.023Z,3484.00
2023-04-17T11:06:29.868Z,3608.00
2023-04-17T11:07:29.779Z,3608.00
2023-04-17T11:08:29.746Z,3344.00
2023-04-17T11:09:29.702Z,3080.00
2023-04-17T11:10:29.703Z,2996.00
2023-04-17T11:11:43.524Z,3056.00
2023-04-17T11:12:30.486Z,3116.00
2023-04-17T11:13:29.419Z,2980.00
2023-04-17T11:14:29.456Z,2816.00
2023-04-17T11:15:29.314Z,3408.00
2023-04-17T11:16:29.367Z,3176.00
2023-04-17T11:17:30.266Z,3044.00
2023-04-17T11:18:29.146Z,3564.00
2023-04-17T11:19:29.112Z,3316.00
2023-04-17T11:20:29.153Z,3284.00
2023-04-17T11:21:29.053Z,3584.00
2023-04-17T11:22:28.911Z,3952.00
2023-04-17T11:23:28.884Z,3680.00
2023-04-17T11:24:28.822Z,3968.00
2023-04-17T11:25:28.752Z,4048.00
2023-04-17T11:26:28.805Z,3856.00
2023-04-17T11:27:28.608Z,3556.00
2023-04-17T11:28:28.590Z,4112.00
2023-04-17T11:29:28.478Z,4252.00
2023-04-17T11:30:28.419Z,4452.00
2023-04-17T11:31:28.496Z,4628.00
2023-04-17T11:32:28.324Z,4364.00
2023-04-17T11:33:28.239Z,4276.00
2023-04-17T11:34:28.215Z,4032.00
2023-04-17T11:35:28.104Z,3716.00
2023-04-17T11:36:28.105Z,3552.00
2023-04-17T11:37:28.043Z,2568.00
2023-04-17T11:38:27.966Z,3080.00
2023-04-17T11:39:27.892Z,3960.00
2023-04-17T11:40:27.818Z,4096.00
2023-04-17T11:41:27.786Z,4236.00
2023-04-17T11:42:27.691Z,4256.00
2023-04-17T11:43:27.626Z,4228.00
2023-04-17T11:44:27.539Z,4308.00
2023-04-17T11:45:27.467Z,4568.00
2023-04-17T11:46:27.529Z,4848.00
2023-04-17T11:47:27.358Z,5032.00
2023-04-17T11:48:27.272Z,5004.00
2023-04-17T11:49:27.244Z,5468.00
2023-04-17T11:50:27.126Z,5348.00
2023-04-17T11:51:27.175Z,5784.00
2023-04-17T11:52:27.010Z,5760.00
2023-04-17T11:53:26.941Z,5700.00
2023-04-17T11:54:26.857Z,5572.00
2023-04-17T11:55:26.797Z,5444.00
2023-04-17T11:56:26.794Z,5296.00
2023-04-17T11:57:26.658Z,5180.00
2023-04-17T11:58:28.871Z,4300.00
2023-04-17T11:59:26.503Z,3740.00
2023-04-17T12:00:26.471Z,4996.00
2023-04-17T12:01:26.564Z,5036.00
2023-04-17T12:02:26.544Z,4996.00
2023-04-17T12:03:26.549Z,4840.00
2023-04-17T12:04:26.378Z,4656.00
2023-04-17T12:05:26.155Z,4536.00
2023-04-17T12:06:26.338Z,4408.00
2023-04-17T12:07:25.985Z,3512.00
2023-04-17T12:08:25.879Z,3272.00
2023-04-17T12:09:25.837Z,3376.00
2023-04-17T12:10:25.741Z,3328.00
2023-04-17T12:11:25.729Z,3172.00
2023-04-17T12:12:26.635Z,3008.00
2023-04-17T12:13:25.569Z,3164.00
2023-04-17T12:14:26.444Z,2920.00
2023-04-17T12:15:25.430Z,2820.00
2023-04-17T12:16:25.619Z,2668.00
2023-04-17T12:17:25.397Z,2732.00
2023-04-17T12:18:25.209Z,3900.00
2023-04-17T12:19:25.190Z,3024.00
2023-04-17T12:20:26.766Z,3052.00
2023-04-17T12:21:25.053Z,3168.00
2023-04-17T12:22:25.028Z,3404.00
2023-04-17T12:23:24.909Z,3808.00
2023-04-17T12:24:25.076Z,4860.00
2023-04-17T12:25:24.789Z,5488.00
2023-04-17T12:26:24.728Z,5684.00
2023-04-17T12:27:24.717Z,5828.00
2023-04-17T12:28:24.613Z,5908.00
2023-04-17T12:29:42.314Z,5548.00
2023-04-17T12:30:25.468Z,5888.00
2023-04-17T12:31:24.438Z,5516.00
2023-04-17T12:32:24.438Z,5244.00